Data for 06/23/2009

Time Sea-Level Adjusted Pressure Absolute Pressure Temperature Relative Humidity Dew Point   
(mb) (inHg) (mb) (inHg) (C) (F) (%) (C) (F)
00:05 1021 30.15 850 25.1 5.9 42.5 84 3.3 37.9
00:10 1021 30.15 850 25.1 5.8 42.5 84 3.3 37.9
00:15 1021 30.15 850 25.1 5.9 42.6 84 3.4 38.1
00:20 1021 30.15 850 25.1 5.9 42.6 83 3.2 37.8
00:25 1021 30.15 850 25.1 5.9 42.7 84 3.4 38.1
00:30 1021 30.15 850 25.1 5.9 42.6 84 3.4 38.1
00:35 1021 30.15 850 25.1 5.8 42.5 83 3.2 37.8
00:40 1021 30.15 850 25.1 5.9 42.6 82 3.1 37.6
00:45 1021 30.15 850 25.1 5.9 42.6 83 3.2 37.7
00:50 1021 30.15 850 25.1 6 42.8 81 2.9 37.2
00:55 1021 30.15 850 25.1 5.9 42.6 81 3 37.3
01:00 1021 30.15 850 25.1 5.9 42.6 80 2.8 37
01:05 1021 30.15 850 25.1 5.9 42.7 78 2.3 36.2
01:10 1021 30.15 850 25.1 6 42.9 78 2.5 36.6
01:15 1021 30.15 850 25.1 5.9 42.6 79 2.6 36.7
01:20 1021 30.15 850 25.1 5.7 42.2 79 2.3 36.2
01:25 1021 30.15 850 25.1 5.6 42.1 80 2.4 36.3
01:30 1021 30.15 850 25.1 5.4 41.7 81 2.3 36.2
01:35 1021 30.15 850 25.1 5.2 41.4 81 2.2 35.9
01:40 1021 30.15 850 25.1 5.2 41.4 80 2 35.5
01:45 1021 30.15 850 25.1 5 41.1 79 1.8 35.2
01:50 1021 30.15 850 25.1 5 41 80 1.8 35.3
01:55 1021 30.15 850 25.1 5 41 80 1.8 35.3
02:00 1021 30.15 850 25.1 5 41 79 1.7 35.1
02:05 1021 30.15 850 25.1 4.9 40.9 80 1.7 35.1
02:10 1021 30.15 850 25.1 4.9 40.8 78 1.4 34.5
02:15 1021 30.15 850 25.1 5.3 41.5 75 1.1 34
02:20 1021 30.15 850 25.1 5.3 41.5 72 0.7 33.3
02:25 1021 30.15 850 25.1 5.4 41.7 75 1.3 34.4
02:30 1021 30.15 850 25.1 4.9 40.9 77 1.2 34.2
02:35 1021 30.15 850 25.1 4.7 40.5 77 1.1 33.9
02:40 1021 30.15 850 25.1 4.7 40.4 77 1.1 33.9
02:45 1021 30.15 850 25.1 4.7 40.4 78 1.1 33.9
02:50 1021 30.15 850 25.1 4.5 40.1 78 1.1 33.9
02:55 1021 30.15 850 25.1 4.4 39.9 79 1 33.8
03:00 1021 30.15 850 25.1 4.3 39.7 79 1 33.8
03:05 1021 30.15 850 25.1 4.2 39.5 79 1 33.7
03:10 1021 30.15 850 25.1 4.2 39.5 78 0.8 33.4
03:15 1021 30.15 850 25.1 4.2 39.5 78 0.6 33.1
03:20 1021 30.15 850 25.1 4.1 39.4 79 0.7 33.3
03:25 1021 30.15 850 25.1 4 39.2 79 0.8 33.4
03:30 1021 30.15 850 25.1 3.9 39.1 80 0.8 33.4
03:35 1021 30.15 850 25.1 3.9 39 80 0.8 33.4
03:40 1021 30.15 850 25.1 3.8 38.9 80 0.8 33.4
03:45 1021 30.15 850 25.1 3.8 38.8 81 0.8 33.4
03:50 1021 30.15 850 25.1 3.7 38.7 81 0.7 33.3
03:55 1021 30.15 850 25.1 3.7 38.7 81 0.7 33.3
04:00 1021 30.15 850 25.1 3.7 38.6 82 0.8 33.4
04:05 1021 30.15 850 25.1 3.6 38.6 82 0.8 33.4
04:10 1021 30.15 850 25.1 3.7 38.6 81 0.7 33.3
04:15 1021 30.15 850 25.1 3.6 38.5 82 0.8 33.4
04:20 1021 30.15 850 25.1 3.6 38.5 81 0.7 33.3
04:25 1021 30.15 850 25.1 3.5 38.3 82 0.8 33.4
04:30 1021 30.15 850 25.1 3.5 38.3 81 0.6 33.1
04:35 1021 30.15 850 25.1 3.6 38.5 81 0.6 33
04:40 1021 30.15 850 25.1 3.6 38.5 80 0.5 33
04:45 1021 30.15 850 25.1 3.7 38.6 80 0.6 33
04:50 1021 30.15 850 25.1 3.7 38.6 80 0.6 33
04:55 1021 30.15 850 25.1 3.7 38.6 80 0.5 32.8
05:00 1021 30.15 850 25.1 3.7 38.7 79 0.4 32.8
05:05 1021 30.15 850 25.1 3.7 38.7 79 0.5 32.8
05:10 1021 30.15 850 25.1 3.7 38.6 79 0.4 32.7
05:15 1021 30.15 850 25.1 3.6 38.5 80 0.4 32.8
05:20 1021 30.15 850 25.1 3.6 38.5 79 0.4 32.7
05:25 1021 30.15 850 25.1 3.6 38.4 80 0.4 32.8
05:30 1021 30.15 850 25.1 3.5 38.3 80 0.4 32.7
05:35 1021 30.15 850 25.1 3.4 38.2 80 0.3 32.6
05:40 1021 30.15 850 25.1 3.5 38.2 81 0.4 32.8
05:45 1021 30.15 850 25.1 3.3 38 81 0.4 32.7
05:50 1021 30.15 850 25.1 3.2 37.8 82 0.5 32.9
05:55 1021 30.15 850 25.1 3.1 37.5 82 0.3 32.6
06:00 1021 30.15 850 25.1 3.3 37.9 81 0.3 32.5
06:05 1021 30.15 850 25.1 3.5 38.3 80 0.4 32.7
06:10 1021 30.15 850 25.1 3.7 38.6 78 0.2 32.4
06:15 1021 30.15 850 25.1 3.9 39 78 0.5 32.9
06:20 1021 30.15 850 25.1 3.9 39 78 0.4 32.8
06:25 1021 30.15 850 25.1 3.9 39 78 0.4 32.8
06:30 1021 30.15 850 25.1 4.1 39.4 77 0.4 32.8
06:35 1021 30.15 850 25.1 4.2 39.6 77 0.6 33
06:40 1021 30.15 850 25.1 4.2 39.6 77 0.5 32.9
06:45 1021 30.15 850 25.1 4.4 39.9 76 0.6 33.1
06:50 1021 30.15 850 25.1 4.6 40.2 77 0.8 33.5
06:55 1021 30.15 850 25.1 4.8 40.7 75 0.8 33.5
07:00 1021 30.15 850 25.1 5.1 41.1 74 0.8 33.5
07:05 1021 30.15 850 25.1 5.2 41.3 73 0.8 33.4
07:10 1021 30.15 850 25.1 5.4 41.7 73 1 33.8
07:15 1021 30.15 850 25.1 5.8 42.4 73 1.3 34.3
07:20 1021 30.15 850 25.1 6.2 43.2 70 1.1 34
07:25 1021 30.15 850 25.1 6.5 43.7 69 1.3 34.4
07:30 1021 30.15 850 25.1 6.7 44.1 70 1.5 34.8
07:35 1021 30.15 851 25.13 7.2 44.9 69 1.9 35.5
07:40 1021 30.15 851 25.13 7.5 45.5 68 2 35.5
07:45 1021 30.15 851 25.13 8.1 46.6 66 2.1 35.7
07:50 1021 30.15 851 25.13 8.5 47.4 65 2.4 36.3
07:55 1021 30.15 851 25.13 8.9 47.9 61 1.7 35
08:00 1021 30.15 851 25.13 9.3 48.8 59 1.7 35.1
08:05 1021 30.15 851 25.13 9.5 49.1 61 2.5 36.5
08:10 1021 30.15 851 25.13 10.2 50.4 53 1.2 34.1
08:15 1022 30.18 851 25.13 10.5 50.8 51 0.8 33.4
08:20 1022 30.18 851 25.13 10.4 50.8 53 1.3 34.4
08:25 1022 30.18 851 25.13 10.5 50.9 54 1.6 34.9
08:30 1022 30.18 851 25.13 10.2 50.3 55 1.6 34.8
08:35 1022 30.18 851 25.13 10.3 50.5 54 1.3 34.4
08:40 1022 30.18 851 25.13 10.7 51.2 53 1.6 34.8
08:45 1022 30.18 851 25.13 10.1 50.3 55 1.5 34.7
08:50 1022 30.18 851 25.13 10.5 50.9 51 0.8 33.5
08:55 1022 30.18 851 25.13 11 51.7 50 1.1 33.9
09:00 1022 30.18 851 25.13 11.5 52.8 48 0.9 33.6
09:05 1021 30.15 851 25.13 11.7 53.1 51 2 35.6
09:10 1021 30.15 851 25.13 11.9 53.3 48 1.4 34.5
09:15 1021 30.15 851 25.13 11.6 52.9 49 1.4 34.6
09:20 1021 30.15 851 25.13 11.8 53.3 47 0.9 33.7
09:25 1021 30.15 851 25.13 11.8 53.2 47 1.1 33.9
09:30 1021 30.15 851 25.13 11.7 53.1 48 1.1 34
09:35 1021 30.15 851 25.13 10.9 51.6 50 1 33.7
09:40 1021 30.15 850 25.1 11.4 52.5 51 1.7 35
09:45 1021 30.15 850 25.1 10.9 51.6 50 1 33.8
09:50 1021 30.15 850 25.1 11.4 52.5 47 0.5 33
09:55 1021 30.15 850 25.1 12.1 53.7 45 0.5 32.9
10:00 1021 30.15 850 25.1 12.3 54.1 48 1.7 35.1
10:05 1021 30.15 850 25.1 12.2 54 46 0.9 33.7
10:10 1021 30.15 850 25.1 12.7 54.8 41 -0.2 31.6
10:15 1021 30.15 850 25.1 12.1 53.8 43 0.1 32.1
10:20 1021 30.15 850 25.1 13 55.5 40 -0 32
10:25 1021 30.15 850 25.1 12.8 55 40 -0.4 31.3
10:30 1021 30.15 850 25.1 13.5 56.3 42 0.8 33.4
10:35 1021 30.15 850 25.1 13.6 56.5 39 0.1 32.2
10:40 1021 30.15 850 25.1 14.2 57.6 39 0.5 32.8
10:45 1021 30.15 850 25.1 13.7 56.7 39 0.2 32.3
10:50 1021 30.15 850 25.1 13.9 56.9 41 1 33.8
10:55 1021 30.15 850 25.1 13.5 56.2 39 -0.3 31.5
11:00 1021 30.15 850 25.1 14 57.1 40 0.7 33.2
11:05 1021 30.15 850 25.1 14.6 58.3 36 -0 32
11:10 1021 30.15 850 25.1 14.3 57.8 37 -0.2 31.7
11:15 1021 30.15 850 25.1 14.2 57.5 38 0 32
11:20 1021 30.15 850 25.1 13.8 56.8 38 -0.2 31.6
11:25 1021 30.15 850 25.1 13.3 55.9 39 -0.2 31.7
11:30 1021 30.15 850 25.1 14.3 57.7 38 0.3 32.6
11:35 1021 30.15 850 25.1 15.4 59.7 35 0.3 32.5
11:40 1021 30.15 850 25.1 15.8 60.5 34 0.1 32.1
11:45 1020 30.12 850 25.1 15 59 37 0.5 32.9
11:50 1020 30.12 850 25.1 15.5 59.9 33 -0.6 30.9
11:55 1020 30.12 850 25.1 15.9 60.7 36 1.1 33.9
12:00 1020 30.12 849 25.07 15.8 60.4 36 0.9 33.7
12:05 1020 30.12 849 25.07 15.6 60.1 33 -0.3 31.4
12:10 1020 30.12 849 25.07 15.7 60.3 34 -0.1 31.9
12:15 1020 30.12 849 25.07 16.4 61.4 32 -0.1 31.7
12:20 1020 30.12 849 25.07 16.9 62.3 32 0.1 32.2
12:25 1020 30.12 849 25.07 16.9 62.5 34 0.9 33.6
12:30 1020 30.12 849 25.07 17 62.7 32 0.6 33
12:35 1020 30.12 849 25.07 17.1 62.7 32 0.2 32.3
12:40 1020 30.12 849 25.07 16.3 61.3 33 -0.1 31.9
12:45 1020 30.12 849 25.07 16.3 61.4 32 -0.1 31.7
12:50 1020 30.12 849 25.07 17.2 62.9 31 0.2 32.3
12:55 1020 30.12 849 25.07 17.7 63.8 31 0.6 33.1
13:00 1020 30.12 849 25.07 18 64.5 30 0.3 32.5
13:05 1020 30.12 849 25.07 18.4 65 31 0.9 33.6
13:10 1020 30.12 849 25.07 18.5 65.2 29 0.4 32.7
13:15 1020 30.12 849 25.07 18.8 65.8 29 0.6 33.2
13:20 1020 30.12 849 25.07 19.3 66.7 29 1.1 34
13:25 1020 30.12 849 25.07 19.2 66.6 30 1.2 34.1
13:30 1020 30.12 849 25.07 18.9 66.1 30 1.1 33.9
13:35 1020 30.12 849 25.07 18.8 65.9 31 1.5 34.6
13:40 1020 30.12 849 25.07 17.7 63.9 32 1 33.9
13:45 1020 30.12 849 25.07 17 62.5 33 0.8 33.5
13:50 1020 30.12 849 25.07 17.7 63.8 33 1.3 34.3
13:55 1020 30.12 849 25.07 17.9 64.2 32 1.1 33.9
14:00 1019 30.09 849 25.07 18.1 64.6 30 0.6 33.1
14:05 1019 30.09 849 25.07 18.7 65.6 31 1.5 34.8
14:10 1019 30.09 849 25.07 19 66.1 30 1.2 34.1
14:15 1019 30.09 849 25.07 19.4 66.9 29 1.1 33.9
14:20 1019 30.09 848 25.04 20.2 68.3 28 1.5 34.7
14:25 1019 30.09 848 25.04 20.4 68.8 28 1.6 34.9
14:30 1019 30.09 848 25.04 18.8 65.8 31 1.2 34.2
14:35 1019 30.09 848 25.04 19.3 66.7 30 1.3 34.3
14:40 1019 30.09 848 25.04 19.1 66.3 31 1.7 35
14:45 1019 30.09 848 25.04 19.4 66.8 31 1.8 35.3
14:50 1019 30.09 848 25.04 19.6 67.2 31 2.1 35.7
14:55 1019 30.09 848 25.04 19.1 66.3 32 2.1 35.7
15:00 1019 30.09 848 25.04 19.1 66.4 31 1.7 35
15:05 1019 30.09 848 25.04 19.9 67.8 29 1.6 34.8
15:10 1019 30.09 848 25.04 20.2 68.3 29 1.8 35.2
15:15 1019 30.09 848 25.04 20.4 68.6 28 1.5 34.6
15:20 1019 30.09 848 25.04 20.7 69.2 29 2 35.5
15:25 1019 30.09 848 25.04 21.2 70.2 28 2.1 35.8
15:30 1019 30.09 848 25.04 21.2 70.1 28 2.1 35.9
15:35 1019 30.09 848 25.04 21.2 70.2 28 2.4 36.3
15:40 1019 30.09 848 25.04 20.1 68.1 31 2.4 36.3
15:45 1019 30.09 848 25.04 20 68 30 1.9 35.4
15:50 1019 30.09 848 25.04 20.8 69.4 28 1.8 35.2
15:55 1019 30.09 848 25.04 21 69.9 28 2 35.7
16:00 1019 30.09 848 25.04 21.2 70.2 26 1.2 34.2
16:05 1019 30.09 848 25.04 20.5 68.8 30 2.4 36.4
16:10 1019 30.09 848 25.04 20.5 69 29 1.9 35.3
16:15 1019 30.09 848 25.04 20.7 69.3 29 2.4 36.4
16:20 1019 30.09 848 25.04 20.5 68.8 28 1.3 34.4
16:25 1018 30.06 848 25.04 20.9 69.7 28 1.7 35
16:30 1018 30.06 848 25.04 21.2 70.2 29 2.7 36.8
16:35 1018 30.06 848 25.04 21.3 70.3 28 2.1 35.7
16:40 1018 30.06 848 25.04 20.9 69.5 30 2.7 36.8
16:45 1018 30.06 848 25.04 21.4 70.5 27 2.1 35.7
16:50 1018 30.06 848 25.04 21.6 70.8 27 2.2 36
16:55 1018 30.06 847 25.01 21.5 70.8 26 1.5 34.7
17:00 1018 30.06 847 25.01 21.9 71.4 27 2.2 35.9
17:05 1018 30.06 847 25.01 22.1 71.9 27 2.4 36.4
17:10 1018 30.06 847 25.01 21.9 71.3 26 1.8 35.2
17:15 1018 30.06 847 25.01 21 69.8 28 1.8 35.3
17:20 1018 30.06 847 25.01 21.2 70.2 26 1.3 34.3
17:25 1018 30.06 847 25.01 20.7 69.3 28 2 35.5
17:30 1018 30.06 847 25.01 21.1 69.9 27 1.5 34.6
17:35 1018 30.06 847 25.01 21.6 70.9 26 1.4 34.6
17:40 1018 30.06 847 25.01 21.7 71.1 27 1.9 35.3
17:45 1018 30.06 847 25.01 21.8 71.3 27 2.3 36.2
17:50 1018 30.06 847 25.01 21.3 70.3 27 1.9 35.4
17:55 1018 30.06 847 25.01 22.1 71.7 26 1.9 35.4
18:00 1018 30.06 847 25.01 22.4 72.2 26 2.2 35.9
18:05 1018 30.06 847 25.01 21.3 70.4 29 2.7 36.8
18:10 1018 30.06 847 25.01 21.8 71.2 27 2 35.6
18:15 1018 30.06 847 25.01 22.5 72.4 26 2.4 36.3
18:20 1018 30.06 847 25.01 21.8 71.3 27 2.2 36
18:25 1018 30.06 847 25.01 21.3 70.3 28 2 35.6
18:30 1018 30.06 847 25.01 21 69.9 27 1.5 34.7
18:35 1018 30.06 847 25.01 21.7 71 27 2 35.5
18:40 1018 30.06 847 25.01 22.5 72.5 26 2 35.6
18:45 1018 30.06 847 25.01 21.4 70.5 27 1.9 35.4
18:50 1017 30.03 847 25.01 20.9 69.6 28 1.8 35.3
18:55 1017 30.03 847 25.01 21.7 71 26 1.6 35
19:00 1017 30.03 847 25.01 22.2 71.9 26 2.1 35.8
19:05 1017 30.03 847 25.01 21.8 71.3 27 2.3 36.1
19:10 1017 30.03 847 25.01 21.3 70.3 27 1.5 34.8
19:15 1017 30.03 847 25.01 21 69.8 27 1.7 35.1
19:20 1017 30.03 847 25.01 20.8 69.4 28 1.6 34.9
19:25 1017 30.03 847 25.01 21 69.7 27 1.5 34.8
19:30 1017 30.03 847 25.01 21.4 70.6 27 2 35.7
19:35 1017 30.03 847 25.01 21.1 70 27 1.8 35.3
19:40 1017 30.03 847 25.01 20.4 68.8 27 0.9 33.6
19:45 1017 30.03 847 25.01 20.3 68.6 28 1.3 34.3
19:50 1017 30.03 847 25.01 20.3 68.5 27 1.1 33.9
19:55 1017 30.03 847 25.01 20.2 68.3 27 0.5 33
20:00 1017 30.03 847 25.01 20.2 68.4 27 0.5 33
20:05 1017 30.03 847 25.01 20.1 68.2 27 0.7 33.2
20:10 1017 30.03 847 25.01 20 67.9 28 0.8 33.5
20:15 1017 30.03 847 25.01 19.9 67.8 28 1 33.8
20:20 1017 30.03 847 25.01 19.9 67.9 32 3 37.4
20:25 1017 30.03 847 25.01 19.8 67.6 32 2.6 36.8
20:30 1017 30.03 847 25.01 19.6 67.2 33 2.9 37.2
20:35 1017 30.03 847 25.01 19.4 66.9 34 3.3 37.9
20:40 1017 30.03 847 25.01 19.3 66.7 35 3.7 38.6
20:45 1017 30.03 847 25.01 19.2 66.5 32 2.3 36.2
20:50 1017 30.03 847 25.01 19.1 66.3 33 2.6 36.7
20:55 1017 30.03 847 25.01 19 66.2 31 1.8 35.2
21:00 1017 30.03 847 25.01 19.2 66.6 29 0.8 33.5
21:05 1017 30.03 847 25.01 19.3 66.8 28 0.7 33.2
21:10 1017 30.03 847 25.01 19.1 66.4 32 2.3 36.1
21:15 1017 30.03 847 25.01 18.7 65.6 36 3.3 38
21:20 1017 30.03 847 25.01 18.1 64.5 44 5.9 42.6
21:25 1017 30.03 847 25.01 17.4 63.3 47 6 42.8
21:30 1017 30.03 847 25.01 16.7 62 48 5.8 42.5
21:35 1017 30.03 847 25.01 16.2 61.1 51 6.1 43
21:40 1018 30.06 847 25.01 15.7 60.2 55 6.6 43.9
21:45 1018 30.06 847 25.01 15.1 59.2 56 6.5 43.6
21:50 1018 30.06 847 25.01 14.7 58.4 53 5.2 41.3
21:55 1018 30.06 847 25.01 14.8 58.6 53 5.4 41.7
22:00 1018 30.06 847 25.01 14.6 58.3 52 4.9 40.8
22:05 1018 30.06 847 25.01 14.5 58.1 51 4.7 40.4
22:10 1018 30.06 847 25.01 14.9 58.7 47 3.8 38.8
22:15 1018 30.06 847 25.01 15.1 59.1 48 4.1 39.4
22:20 1018 30.06 847 25.01 14.6 58.4 51 4.7 40.4
22:25 1018 30.06 847 25.01 14.2 57.5 53 4.9 40.9
22:30 1018 30.06 847 25.01 13.8 56.9 56 5.2 41.3
22:35 1018 30.06 847 25.01 13.3 55.9 56 4.7 40.4
22:40 1018 30.06 847 25.01 13.3 56 55 4.7 40.4
22:45 1018 30.06 847 25.01 13.3 55.9 55 4.4 39.9
22:50 1018 30.06 847 25.01 13.6 56.5 52 4.1 39.5
22:55 1018 30.06 847 25.01 13.7 56.6 53 4.4 40
23:00 1018 30.06 847 25.01 13.4 56.2 54 4.4 39.8
23:05 1018 30.06 847 25.01 13.3 55.9 54 4.3 39.8
23:10 1018 30.06 847 25.01 13.2 55.7 55 4.4 39.9
23:15 1018 30.06 847 25.01 13 55.4 55 4.1 39.4
23:20 1018 30.06 847 25.01 13.1 55.5 54 3.9 39.1
23:25 1018 30.06 847 25.01 13.1 55.6 54 4.1 39.4
23:30 1018 30.06 847 25.01 13 55.4 54 4.1 39.3
23:35 1018 30.06 847 25.01 13 55.3 52 3.4 38.2
23:40 1018 30.06 847 25.01 13.2 55.7 53 3.8 38.9
23:45 1018 30.06 847 25.01 13 55.5 53 3.7 38.6
23:50 1018 30.06 847 25.01 13.1 55.6 53 3.7 38.7
23:55 1018 30.06 847 25.01 12.9 55.2 54 4 39.2
24:00 1018 30.06 847 25.01 12.7 54.9 56 4.1 39.5